Hjaltland — VSTY8 — position and weather

sailwx.info

Track history (hours):
 
Tides and Currents Weather Stations Pressure Air Temp Water Temp Dewpoint Dewpoint Depression Visibility Wind Speed Wind Dir Waves Ship Positions

Hjaltland

Operator: NorthLink Orkey & Shetland Ferries Ltd

Last reported at 2018-Jun-22 01:06 UTC. Time now 2018-Jun-22 07:43 UTC.
Position N 59°04' W 002°27'.

Type: Ship. MMSI: 235450000.

Date/timePositionNaut miles runAvg speedWind from/ knotsBaromVisibWave heightAir tempDewpointWater temp
2018-Jun-22 01:06N 59°04' W 002°27'216.6
2018-Jun-22 01:00N 59°03' W 002°29'714.6
2018-Jun-22 00:30N 59°00' W 002°43'814.8
2018-Jun-22 00:00N 59°01' W 002°57'1 0.9
2018-Jun-21 22:39N 58°60' W 002°58'0 3.2
2018-Jun-21 22:30N 59°00' W 002°58'1019.5
2018-Jun-21 22:01N 58°58' W 002°40'8720.8
2018-Jun-21 17:49N 57°36' W 001°39'619.1
2018-Jun-21 17:31N 57°31' W 001°38'1120.1
2018-Jun-21 16:58N 57°20' W 001°45'1022.2
2018-Jun-21 16:31N 57°13' W 001°57'611.8
2018-Jun-21 16:00N 57°09' W 002°05'0 0.0
2018-Jun-21 15:28N 57°09' W 002°05'0 0.0
2018-Jun-21 15:00N 57°09' W 002°05'0 0.0
2018-Jun-21 14:30N 57°09' W 002°05'0 0.0
2018-Jun-21 14:00N 57°09' W 002°05'0 0.0
2018-Jun-21 13:28N 57°09' W 002°05'0 0.0
2018-Jun-21 12:58N 57°09' W 002°05'0 0.0
2018-Jun-21 12:28N 57°09' W 002°05'0 0.0
2018-Jun-21 11:58N 57°09' W 002°05'0 0.0
2018-Jun-21 11:28N 57°09' W 002°05'0 0.0
2018-Jun-21 10:58N 57°09' W 002°05'0 0.0
2018-Jun-21 10:28N 57°09' W 002°05'0 0.0
2018-Jun-21 09:58N 57°09' W 002°05'0 0.0
2018-Jun-21 09:28N 57°09' W 002°05'0 0.0
2018-Jun-21 08:58N 57°09' W 002°05'0 0.0
2018-Jun-21 08:28N 57°09' W 002°05'0 0.0
2018-Jun-21 07:58N 57°09' W 002°05'0 0.0
2018-Jun-21 07:28N 57°09' W 002°05'0 0.0
2018-Jun-21 06:58N 57°09' W 002°05'0 0.0
2018-Jun-21 06:28N 57°09' W 002°05'0 0.0
2018-Jun-21 05:58N 57°09' W 002°05'1 1.2
2018-Jun-21 05:30N 57°09' W 002°04'612.3
2018-Jun-21 05:00N 57°13' W 001°56'816.5
2018-Jun-21 04:31N 57°19' W 001°47'816.5
2018-Jun-21 04:00N 57°26' W 001°40'816.7
2018-Jun-21 03:30N 57°35' W 001°39'8821.5
2018-Jun-20 23:26N 58°57' W 002°38'919.9
2018-Jun-20 23:00N 59°01' W 002°53'3 4.6
2018-Jun-20 22:19N 58°60' W 002°58'0 0.0
2018-Jun-20 21:38N 58°60' W 002°58'0 0.0
2018-Jun-20 21:30N 58°60' W 002°58'510.7
2018-Jun-20 21:00N 59°00' W 002°48'12 0.6
2018-Jun-20 01:02N 59°05' W 002°27'014.0
2018-Jun-20 01:00N 59°04' W 002°27'612.7
2018-Jun-20 00:30N 59°00' W 002°37'713.9
2018-Jun-20 00:01N 59°01' W 002°50'4 7.7
2018-Jun-19 23:27N 58°60' W 002°58'0 0.0
2018-Jun-19 22:52N 58°60' W 002°58'0 0.0
2018-Jun-19 22:29N 58°60' W 002°58'0 0.0
2018-Jun-19 22:00N 58°60' W 002°58'714.3
2018-Jun-19 21:31N 58°60' W 002°45'9022.7
2018-Jun-19 17:33N 57°36' W 001°43'120.8
2018-Jun-19 17:30N 57°35' W 001°43'1020.6
2018-Jun-19 17:00N 57°25' W 001°45'1121.3
2018-Jun-19 16:30N 57°15' W 001°54'917.9
2018-Jun-19 16:01N 57°08' W 002°04'1 1.3
2018-Jun-19 15:30N 57°09' W 002°05'0 0.0
2018-Jun-19 14:58N 57°09' W 002°05'0 0.0
2018-Jun-19 14:30N 57°09' W 002°05'0 0.0
2018-Jun-19 14:00N 57°09' W 002°05'0 0.0
2018-Jun-19 13:30N 57°09' W 002°05'0 0.0
2018-Jun-19 13:00N 57°09' W 002°05'0 0.0
2018-Jun-19 12:30N 57°09' W 002°05'0 0.0
2018-Jun-19 12:00N 57°09' W 002°05'0 0.0
2018-Jun-19 11:30N 57°09' W 002°05'0 0.0
2018-Jun-19 11:00N 57°09' W 002°05'0 0.0
2018-Jun-19 10:30N 57°09' W 002°05'0 0.0
2018-Jun-19 10:00N 57°09' W 002°05'0 0.0
2018-Jun-19 09:30N 57°09' W 002°05'0 0.0
2018-Jun-19 09:00N 57°09' W 002°05'0 0.0
2018-Jun-19 08:30N 57°09' W 002°05'0 0.0
2018-Jun-19 08:00N 57°09' W 002°05'0 0.0
2018-Jun-19 07:30N 57°09' W 002°05'0 0.0
2018-Jun-19 07:00N 57°09' W 002°05'0 0.0
2018-Jun-19 06:30N 57°09' W 002°05'0 0.0
2018-Jun-19 05:58N 57°09' W 002°05'1 1.2
2018-Jun-19 05:30N 57°09' W 002°04'612.8
2018-Jun-19 05:01N 57°13' W 001°56'816.8
2018-Jun-19 04:30N 57°20' W 001°47'1016.5
2018-Jun-19 03:56N 57°28' W 001°37'717.1
2018-Jun-19 03:30N 57°35' W 001°39'8721.4
2018-Jun-18 23:28N 58°56' W 002°37'1021.8
2018-Jun-18 23:00N 59°01' W 002°54'2 2.2
2018-Jun-18 21:52N 58°60' W 002°58'3 7.3
2018-Jun-18 21:30N 59°01' W 002°53'814.6
2018-Jun-18 20:59N 59°01' W 002°39'8 0.4
2018-Jun-18 00:09N 59°05' W 002°26'212.9
2018-Jun-18 00:00N 59°04' W 002°28'612.0
2018-Jun-17 23:30N 59°00' W 002°38'714.8
2018-Jun-17 23:00N 59°01' W 002°52'3 6.4
2018-Jun-17 22:30N 58°60' W 002°58'0 0.0
2018-Jun-17 21:58N 58°60' W 002°58'4 8.9
2018-Jun-17 21:30N 59°01' W 002°50'1020.6
2018-Jun-17 21:01N 58°54' W 002°35'1223.9
2018-Jun-17 20:30N 58°43' W 002°27'7023.7
2018-Jun-17 17:32N 57°37' W 001°42'122.8
2018-Jun-17 17:31N 57°36' W 001°42'1122.2
2018-Jun-17 17:00N 57°25' W 001°44'1921.6
2018-Jun-17 16:07N 57°09' W 002°04'1 4.8
2018-Jun-17 15:59N 57°09' W 002°05'0 0.8
2018-Jun-17 15:27N 57°09' W 002°05'0 0.0
2018-Jun-17 15:00N 57°09' W 002°05'0 0.0
2018-Jun-17 14:30N 57°09' W 002°05'0 0.0
2018-Jun-17 14:00N 57°09' W 002°05'0 0.0
2018-Jun-17 13:30N 57°09' W 002°05'0 0.0
2018-Jun-17 13:00N 57°09' W 002°05'0 0.0
2018-Jun-17 12:30N 57°09' W 002°05'0 0.0
2018-Jun-17 12:00N 57°09' W 002°05'0 0.0
2018-Jun-17 11:30N 57°09' W 002°05'0 0.0
2018-Jun-17 11:00N 57°09' W 002°05'0 0.0
2018-Jun-17 10:30N 57°09' W 002°05'0 0.0
2018-Jun-17 10:00N 57°09' W 002°05'0 0.0
2018-Jun-17 09:30N 57°09' W 002°05'0 0.0
2018-Jun-17 09:00N 57°09' W 002°05'0 0.0
2018-Jun-17 08:30N 57°09' W 002°05'0 0.0
2018-Jun-17 08:00N 57°09' W 002°05'0 0.0
2018-Jun-17 07:30N 57°09' W 002°05'0 0.0
2018-Jun-17 07:00N 57°09' W 002°05'0 0.0
2018-Jun-17 06:30N 57°09' W 002°05'0 0.0
2018-Jun-17 06:00N 57°09' W 002°05'1 1.3
2018-Jun-17 05:29N 57°08' W 002°04'2411.5
2018-Jun-17 03:22N 57°28' W 001°36'614.3
2018-Jun-17 02:57N 57°34' W 001°37'17 0.5
2018-Jun-15 18:54N 57°18' W 001°49'614.3
2018-Jun-15 18:30N 57°14' W 001°55'713.8
2018-Jun-15 18:01N 57°09' W 002°04'1 1.7
2018-Jun-15 17:29N 57°09' W 002°05'0 0.0
2018-Jun-15 16:59N 57°09' W 002°05'0 0.0
2018-Jun-15 16:29N 57°09' W 002°05'0 0.0
2018-Jun-15 15:59N 57°09' W 002°05'0 0.0
2018-Jun-15 15:29N 57°09' W 002°05'0 0.0
2018-Jun-15 14:59N 57°09' W 002°05'0 0.0
2018-Jun-15 14:29N 57°09' W 002°05'0 0.0
2018-Jun-15 13:59N 57°09' W 002°05'0 0.0
2018-Jun-15 13:29N 57°09' W 002°05'0 0.0
2018-Jun-15 12:59N 57°09' W 002°05'0 0.0
2018-Jun-15 12:29N 57°09' W 002°05'0 0.0
2018-Jun-15 11:59N 57°09' W 002°05'0 0.0
2018-Jun-15 11:29N 57°09' W 002°05'0 0.0
2018-Jun-15 10:59N 57°09' W 002°05'0 0.0
2018-Jun-15 10:29N 57°09' W 002°05'0 0.0
2018-Jun-15 09:59N 57°09' W 002°05'0 0.0
2018-Jun-15 09:29N 57°09' W 002°05'0 0.0
2018-Jun-15 08:59N 57°09' W 002°05'0 0.0
2018-Jun-15 08:29N 57°09' W 002°05'0 0.0
2018-Jun-15 07:59N 57°09' W 002°05'0 0.0
2018-Jun-15 07:29N 57°09' W 002°05'0 0.0
2018-Jun-15 06:59N 57°09' W 002°05'0 0.0
2018-Jun-15 06:25N 57°09' W 002°05'0 0.0
2018-Jun-15 05:58N 57°09' W 002°05'1 1.2
2018-Jun-15 05:30N 57°09' W 002°04'713.3
2018-Jun-15 05:00N 57°13' W 001°56'1520.7
2018-Jun-15 04:18N 57°26' W 001°42'621.3
2018-Jun-15 04:01N 57°32' W 001°38'4 0.1
2018-Jun-13 20:18N 57°35' W 001°37'413.8
2018-Jun-13 20:00N 57°31' W 001°37'714.2
2018-Jun-13 19:30N 57°25' W 001°41'814.8
2018-Jun-13 18:57N 57°18' W 001°49'715.0
2018-Jun-13 18:31N 57°12' W 001°57'611.4
2018-Jun-13 18:01N 57°09' W 002°05'0 0.8
2018-Jun-13 17:28N 57°09' W 002°05'0 0.0
2018-Jun-13 16:58N 57°09' W 002°05'0 0.0
2018-Jun-13 16:28N 57°09' W 002°05'0 0.0
2018-Jun-13 15:59N 57°09' W 002°05'0 0.0
2018-Jun-13 15:29N 57°09' W 002°05'0 0.0
2018-Jun-13 14:59N 57°09' W 002°05'0 0.0
2018-Jun-13 14:29N 57°09' W 002°05'0 0.0
2018-Jun-13 13:59N 57°09' W 002°05'0 0.0
2018-Jun-13 13:29N 57°09' W 002°05'0 0.0
2018-Jun-13 12:59N 57°09' W 002°05'0 0.0
2018-Jun-13 12:29N 57°09' W 002°05'0 0.0
2018-Jun-13 11:59N 57°09' W 002°05'0 0.0
2018-Jun-13 11:29N 57°09' W 002°05'0 0.0
2018-Jun-13 10:59N 57°09' W 002°05'0 0.0
2018-Jun-13 10:29N 57°09' W 002°05'0 0.0
2018-Jun-13 09:59N 57°09' W 002°05'0 0.0
2018-Jun-13 09:29N 57°09' W 002°05'0 0.0
2018-Jun-13 08:59N 57°09' W 002°05'0 0.0
2018-Jun-13 08:29N 57°09' W 002°05'0 0.0
2018-Jun-13 07:59N 57°09' W 002°05'0 0.0
2018-Jun-13 07:29N 57°09' W 002°05'0 0.0
2018-Jun-13 06:59N 57°09' W 002°05'0 0.0
2018-Jun-13 06:29N 57°09' W 002°05'0 0.0
2018-Jun-13 05:59N 57°09' W 002°05'0 1.0
2018-Jun-13 05:30N 57°09' W 002°05'611.1
2018-Jun-13 05:01N 57°12' W 001°57'1412.8
2018-Jun-13 03:53N 57°24' W 001°42'512.1
2018-Jun-13 03:29N 57°29' W 001°38'612.8
2018-Jun-13 03:00N 57°35' W 001°37'  
Track history (hours):
 
Tides and Currents Weather Stations Pressure Air Temp Water Temp Dewpoint Dewpoint Depression Visibility Wind Speed Wind Dir Waves Ship Positions

Hjaltland

Operator: NorthLink Orkey & Shetland Ferries Ltd

Last reported at 2018-Jun-22 01:06 UTC. Time now 2018-Jun-22 07:43 UTC.
Position N 59°04' W 002°27'.

Type: Ship. MMSI: 235450000.

Date/timePositionNaut miles runAvg speedWind from/ knotsBaromVisibWave heightAir tempDewpointWater temp
2018-Jun-22 01:06N 59°04' W 002°27'216.6
2018-Jun-22 01:00N 59°03' W 002°29'714.6
2018-Jun-22 00:30N 59°00' W 002°43'814.8
2018-Jun-22 00:00N 59°01' W 002°57'1 0.9
2018-Jun-21 22:39N 58°60' W 002°58'0 3.2
2018-Jun-21 22:30N 59°00' W 002°58'1019.5
2018-Jun-21 22:01N 58°58' W 002°40'8720.8
2018-Jun-21 17:49N 57°36' W 001°39'619.1
2018-Jun-21 17:31N 57°31' W 001°38'1120.1
2018-Jun-21 16:58N 57°20' W 001°45'1022.2
2018-Jun-21 16:31N 57°13' W 001°57'611.8
2018-Jun-21 16:00N 57°09' W 002°05'0 0.0
2018-Jun-21 15:28N 57°09' W 002°05'0 0.0
2018-Jun-21 15:00N 57°09' W 002°05'0 0.0
2018-Jun-21 14:30N 57°09' W 002°05'0 0.0
2018-Jun-21 14:00N 57°09' W 002°05'0 0.0
2018-Jun-21 13:28N 57°09' W 002°05'0 0.0
2018-Jun-21 12:58N 57°09' W 002°05'0 0.0
2018-Jun-21 12:28N 57°09' W 002°05'0 0.0
2018-Jun-21 11:58N 57°09' W 002°05'0 0.0
2018-Jun-21 11:28N 57°09' W 002°05'0 0.0
2018-Jun-21 10:58N 57°09' W 002°05'0 0.0
2018-Jun-21 10:28N 57°09' W 002°05'0 0.0
2018-Jun-21 09:58N 57°09' W 002°05'0 0.0
2018-Jun-21 09:28N 57°09' W 002°05'0 0.0
2018-Jun-21 08:58N 57°09' W 002°05'0 0.0
2018-Jun-21 08:28N 57°09' W 002°05'0 0.0
2018-Jun-21 07:58N 57°09' W 002°05'0 0.0
2018-Jun-21 07:28N 57°09' W 002°05'0 0.0
2018-Jun-21 06:58N 57°09' W 002°05'0 0.0
2018-Jun-21 06:28N 57°09' W 002°05'0 0.0
2018-Jun-21 05:58N 57°09' W 002°05'1 1.2
2018-Jun-21 05:30N 57°09' W 002°04'612.3
2018-Jun-21 05:00N 57°13' W 001°56'816.5
2018-Jun-21 04:31N 57°19' W 001°47'816.5
2018-Jun-21 04:00N 57°26' W 001°40'816.7
2018-Jun-21 03:30N 57°35' W 001°39'8821.5
2018-Jun-20 23:26N 58°57' W 002°38'919.9
2018-Jun-20 23:00N 59°01' W 002°53'3 4.6
2018-Jun-20 22:19N 58°60' W 002°58'0 0.0
2018-Jun-20 21:38N 58°60' W 002°58'0 0.0
2018-Jun-20 21:30N 58°60' W 002°58'510.7
2018-Jun-20 21:00N 59°00' W 002°48'12 0.6
2018-Jun-20 01:02N 59°05' W 002°27'014.0
2018-Jun-20 01:00N 59°04' W 002°27'612.7
2018-Jun-20 00:30N 59°00' W 002°37'713.9
2018-Jun-20 00:01N 59°01' W 002°50'4 7.7
2018-Jun-19 23:27N 58°60' W 002°58'0 0.0
2018-Jun-19 22:52N 58°60' W 002°58'0 0.0
2018-Jun-19 22:29N 58°60' W 002°58'0 0.0
2018-Jun-19 22:00N 58°60' W 002°58'714.3
2018-Jun-19 21:31N 58°60' W 002°45'9022.7
2018-Jun-19 17:33N 57°36' W 001°43'120.8
2018-Jun-19 17:30N 57°35' W 001°43'1020.6
2018-Jun-19 17:00N 57°25' W 001°45'1121.3
2018-Jun-19 16:30N 57°15' W 001°54'917.9
2018-Jun-19 16:01N 57°08' W 002°04'1 1.3
2018-Jun-19 15:30N 57°09' W 002°05'0 0.0
2018-Jun-19 14:58N 57°09' W 002°05'0 0.0
2018-Jun-19 14:30N 57°09' W 002°05'0 0.0
2018-Jun-19 14:00N 57°09' W 002°05'0 0.0
2018-Jun-19 13:30N 57°09' W 002°05'0 0.0
2018-Jun-19 13:00N 57°09' W 002°05'0 0.0
2018-Jun-19 12:30N 57°09' W 002°05'0 0.0
2018-Jun-19 12:00N 57°09' W 002°05'0 0.0
2018-Jun-19 11:30N 57°09' W 002°05'0 0.0
2018-Jun-19 11:00N 57°09' W 002°05'0 0.0
2018-Jun-19 10:30N 57°09' W 002°05'0 0.0
2018-Jun-19 10:00N 57°09' W 002°05'0 0.0
2018-Jun-19 09:30N 57°09' W 002°05'0 0.0
2018-Jun-19 09:00N 57°09' W 002°05'0 0.0
2018-Jun-19 08:30N 57°09' W 002°05'0 0.0
2018-Jun-19 08:00N 57°09' W 002°05'0 0.0
2018-Jun-19 07:30N 57°09' W 002°05'0 0.0
2018-Jun-19 07:00N 57°09' W 002°05'0 0.0
2018-Jun-19 06:30N 57°09' W 002°05'0 0.0
2018-Jun-19 05:58N 57°09' W 002°05'1 1.2
2018-Jun-19 05:30N 57°09' W 002°04'612.8
2018-Jun-19 05:01N 57°13' W 001°56'816.8
2018-Jun-19 04:30N 57°20' W 001°47'1016.5
2018-Jun-19 03:56N 57°28' W 001°37'717.1
2018-Jun-19 03:30N 57°35' W 001°39'8721.4
2018-Jun-18 23:28N 58°56' W 002°37'1021.8
2018-Jun-18 23:00N 59°01' W 002°54'2 2.2
2018-Jun-18 21:52N 58°60' W 002°58'3 7.3
2018-Jun-18 21:30N 59°01' W 002°53'814.6
2018-Jun-18 20:59N 59°01' W 002°39'8 0.4
2018-Jun-18 00:09N 59°05' W 002°26'212.9
2018-Jun-18 00:00N 59°04' W 002°28'612.0
2018-Jun-17 23:30N 59°00' W 002°38'714.8
2018-Jun-17 23:00N 59°01' W 002°52'3 6.4
2018-Jun-17 22:30N 58°60' W 002°58'0 0.0
2018-Jun-17 21:58N 58°60' W 002°58'4 8.9
2018-Jun-17 21:30N 59°01' W 002°50'1020.6
2018-Jun-17 21:01N 58°54' W 002°35'1223.9
2018-Jun-17 20:30N 58°43' W 002°27'7023.7
2018-Jun-17 17:32N 57°37' W 001°42'122.8
2018-Jun-17 17:31N 57°36' W 001°42'1122.2
2018-Jun-17 17:00N 57°25' W 001°44'1921.6
2018-Jun-17 16:07N 57°09' W 002°04'1 4.8
2018-Jun-17 15:59N 57°09' W 002°05'0 0.8
2018-Jun-17 15:27N 57°09' W 002°05'0 0.0
2018-Jun-17 15:00N 57°09' W 002°05'0 0.0
2018-Jun-17 14:30N 57°09' W 002°05'0 0.0
2018-Jun-17 14:00N 57°09' W 002°05'0 0.0
2018-Jun-17 13:30N 57°09' W 002°05'0 0.0
2018-Jun-17 13:00N 57°09' W 002°05'0 0.0
2018-Jun-17 12:30N 57°09' W 002°05'0 0.0
2018-Jun-17 12:00N 57°09' W 002°05'0 0.0
2018-Jun-17 11:30N 57°09' W 002°05'0 0.0
2018-Jun-17 11:00N 57°09' W 002°05'0 0.0
2018-Jun-17 10:30N 57°09' W 002°05'0 0.0
2018-Jun-17 10:00N 57°09' W 002°05'0 0.0
2018-Jun-17 09:30N 57°09' W 002°05'0 0.0
2018-Jun-17 09:00N 57°09' W 002°05'0 0.0
2018-Jun-17 08:30N 57°09' W 002°05'0 0.0
2018-Jun-17 08:00N 57°09' W 002°05'0 0.0
2018-Jun-17 07:30N 57°09' W 002°05'0 0.0
2018-Jun-17 07:00N 57°09' W 002°05'0 0.0
2018-Jun-17 06:30N 57°09' W 002°05'0 0.0
2018-Jun-17 06:00N 57°09' W 002°05'1 1.3
2018-Jun-17 05:29N 57°08' W 002°04'2411.5
2018-Jun-17 03:22N 57°28' W 001°36'614.3
2018-Jun-17 02:57N 57°34' W 001°37'17 0.5
2018-Jun-15 18:54N 57°18' W 001°49'614.3
2018-Jun-15 18:30N 57°14' W 001°55'713.8
2018-Jun-15 18:01N 57°09' W 002°04'1 1.7
2018-Jun-15 17:29N 57°09' W 002°05'0 0.0
2018-Jun-15 16:59N 57°09' W 002°05'0 0.0
2018-Jun-15 16:29N 57°09' W 002°05'0 0.0
2018-Jun-15 15:59N 57°09' W 002°05'0 0.0
2018-Jun-15 15:29N 57°09' W 002°05'0 0.0
2018-Jun-15 14:59N 57°09' W 002°05'0 0.0
2018-Jun-15 14:29N 57°09' W 002°05'0 0.0
2018-Jun-15 13:59N 57°09' W 002°05'0 0.0
2018-Jun-15 13:29N 57°09' W 002°05'0 0.0
2018-Jun-15 12:59N 57°09' W 002°05'0 0.0
2018-Jun-15 12:29N 57°09' W 002°05'0 0.0
2018-Jun-15 11:59N 57°09' W 002°05'0 0.0
2018-Jun-15 11:29N 57°09' W 002°05'0 0.0
2018-Jun-15 10:59N 57°09' W 002°05'0 0.0
2018-Jun-15 10:29N 57°09' W 002°05'0 0.0
2018-Jun-15 09:59N 57°09' W 002°05'0 0.0
2018-Jun-15 09:29N 57°09' W 002°05'0 0.0
2018-Jun-15 08:59N 57°09' W 002°05'0 0.0
2018-Jun-15 08:29N 57°09' W 002°05'0 0.0
2018-Jun-15 07:59N 57°09' W 002°05'0 0.0
2018-Jun-15 07:29N 57°09' W 002°05'0 0.0
2018-Jun-15 06:59N 57°09' W 002°05'0 0.0
2018-Jun-15 06:25N 57°09' W 002°05'0 0.0
2018-Jun-15 05:58N 57°09' W 002°05'1 1.2
2018-Jun-15 05:30N 57°09' W 002°04'713.3
2018-Jun-15 05:00N 57°13' W 001°56'1520.7
2018-Jun-15 04:18N 57°26' W 001°42'621.3
2018-Jun-15 04:01N 57°32' W 001°38'4 0.1
2018-Jun-13 20:18N 57°35' W 001°37'413.8
2018-Jun-13 20:00N 57°31' W 001°37'714.2
2018-Jun-13 19:30N 57°25' W 001°41'814.8
2018-Jun-13 18:57N 57°18' W 001°49'715.0
2018-Jun-13 18:31N 57°12' W 001°57'611.4
2018-Jun-13 18:01N 57°09' W 002°05'0 0.8
2018-Jun-13 17:28N 57°09' W 002°05'0 0.0
2018-Jun-13 16:58N 57°09' W 002°05'0 0.0
2018-Jun-13 16:28N 57°09' W 002°05'0 0.0
2018-Jun-13 15:59N 57°09' W 002°05'0 0.0
2018-Jun-13 15:29N 57°09' W 002°05'0 0.0
2018-Jun-13 14:59N 57°09' W 002°05'0 0.0
2018-Jun-13 14:29N 57°09' W 002°05'0 0.0
2018-Jun-13 13:59N 57°09' W 002°05'0 0.0
2018-Jun-13 13:29N 57°09' W 002°05'0 0.0
2018-Jun-13 12:59N 57°09' W 002°05'0 0.0
2018-Jun-13 12:29N 57°09' W 002°05'0 0.0
2018-Jun-13 11:59N 57°09' W 002°05'0 0.0
2018-Jun-13 11:29N 57°09' W 002°05'0 0.0
2018-Jun-13 10:59N 57°09' W 002°05'0 0.0
2018-Jun-13 10:29N 57°09' W 002°05'0 0.0
2018-Jun-13 09:59N 57°09' W 002°05'0 0.0
2018-Jun-13 09:29N 57°09' W 002°05'0 0.0
2018-Jun-13 08:59N 57°09' W 002°05'0 0.0
2018-Jun-13 08:29N 57°09' W 002°05'0 0.0
2018-Jun-13 07:59N 57°09' W 002°05'0 0.0
2018-Jun-13 07:29N 57°09' W 002°05'0 0.0
2018-Jun-13 06:59N 57°09' W 002°05'0 0.0
2018-Jun-13 06:29N 57°09' W 002°05'0 0.0
2018-Jun-13 05:59N 57°09' W 002°05'0 1.0
2018-Jun-13 05:30N 57°09' W 002°05'611.1
2018-Jun-13 05:01N 57°12' W 001°57'1412.8
2018-Jun-13 03:53N 57°24' W 001°42'512.1
2018-Jun-13 03:29N 57°29' W 001°38'612.8
2018-Jun-13 03:00N 57°35' W 001°37'  

Dump ship's entire track history